Hacienda Heights, California
Current Conditions -  °F | °C
As of 9:53 AM on Thursday 30 Oct 2014 (Local Time) from KFUL Reporting Station
Clear Clear  
Wind Chill: 71°   Ceiling: Unl
Heat Index: 71°   Visibility: 10mi
Dew Point: 54°   Wind: 0mph
Humidity: 55%   Direction: NA
Pressure: 29.99"   Gusts: NA
Location:  33.99°N, 117.97°W
Report Text: KFUL 301653Z 00000KT 10SM CLR 22/12 A2999 RMK AO2 SLP154 T02170122
Loading
Personal Weather Stations






























Interactive Weather Map
Tropical Storm Tracking
New forecast layout! Learn more

10-Day Weather Forecast

Advertisements
Track Severe Weather on mobile